sensor_id;sensor_type;location;lat;lon;timestamp;P1;durP1;ratioP1;P2;durP2;ratioP2
70301;SDS011;57706;56.326;43.882;2023-04-03T00:01:37;21.45;;;12.30;;
70301;SDS011;57706;56.326;43.882;2023-04-03T00:04:06;25.38;;;14.90;;
70301;SDS011;57706;56.326;43.882;2023-04-03T00:06:32;27.42;;;14.70;;
70301;SDS011;57706;56.326;43.882;2023-04-03T00:08:58;26.77;;;14.18;;
70301;SDS011;57706;56.326;43.882;2023-04-03T00:11:24;28.75;;;15.50;;
70301;SDS011;57706;56.326;43.882;2023-04-03T00:13:50;22.92;;;14.23;;
70301;SDS011;57706;56.326;43.882;2023-04-03T00:16:17;23.13;;;14.10;;
70301;SDS011;57706;56.326;43.882;2023-04-03T00:18:43;24.08;;;11.82;;
70301;SDS011;57706;56.326;43.882;2023-04-03T00:21:09;28.05;;;11.73;;
70301;SDS011;57706;56.326;43.882;2023-04-03T00:23:37;25.02;;;14.15;;
70301;SDS011;57706;56.326;43.882;2023-04-03T00:26:03;25.65;;;14.00;;
70301;SDS011;57706;56.326;43.882;2023-04-03T00:28:29;28.48;;;13.23;;
70301;SDS011;57706;56.326;43.882;2023-04-03T00:30:55;23.63;;;12.43;;
70301;SDS011;57706;56.326;43.882;2023-04-03T00:33:21;23.17;;;11.68;;
70301;SDS011;57706;56.326;43.882;2023-04-03T00:35:47;22.40;;;12.25;;
70301;SDS011;57706;56.326;43.882;2023-04-03T00:38:14;20.92;;;11.57;;
70301;SDS011;57706;56.326;43.882;2023-04-03T00:40:42;21.70;;;11.07;;
70301;SDS011;57706;56.326;43.882;2023-04-03T00:43:12;21.80;;;12.23;;
70301;SDS011;57706;56.326;43.882;2023-04-03T00:45:41;19.02;;;11.18;;
70301;SDS011;57706;56.326;43.882;2023-04-03T00:48:13;22.63;;;11.55;;
70301;SDS011;57706;56.326;43.882;2023-04-03T00:50:43;21.67;;;10.55;;
70301;SDS011;57706;56.326;43.882;2023-04-03T00:53:15;26.08;;;12.13;;
70301;SDS011;57706;56.326;43.882;2023-04-03T00:55:45;22.38;;;12.30;;
70301;SDS011;57706;56.326;43.882;2023-04-03T00:58:13;23.70;;;12.38;;
70301;SDS011;57706;56.326;43.882;2023-04-03T01:00:43;27.92;;;12.70;;
70301;SDS011;57706;56.326;43.882;2023-04-03T01:03:13;23.63;;;11.80;;
70301;SDS011;57706;56.326;43.882;2023-04-03T01:05:39;21.55;;;10.73;;
70301;SDS011;57706;56.326;43.882;2023-04-03T01:08:05;20.10;;;12.68;;
70301;SDS011;57706;56.326;43.882;2023-04-03T01:10:32;25.90;;;13.65;;
70301;SDS011;57706;56.326;43.882;2023-04-03T01:12:58;22.95;;;13.60;;
70301;SDS011;57706;56.326;43.882;2023-04-03T01:15:26;20.42;;;11.00;;
70301;SDS011;57706;56.326;43.882;2023-04-03T01:17:56;20.23;;;10.55;;
70301;SDS011;57706;56.326;43.882;2023-04-03T01:28:11;26.83;;;13.30;;
70301;SDS011;57706;56.326;43.882;2023-04-03T01:31:00;24.90;;;13.40;;
70301;SDS011;57706;56.326;43.882;2023-04-03T01:33:44;22.95;;;12.60;;
70301;SDS011;57706;56.326;43.882;2023-04-03T01:36:13;22.35;;;12.57;;
70301;SDS011;57706;56.326;43.882;2023-04-03T01:38:41;19.20;;;11.80;;
70301;SDS011;57706;56.326;43.882;2023-04-03T01:41:07;22.80;;;11.70;;
70301;SDS011;57706;56.326;43.882;2023-04-03T01:43:33;20.23;;;11.82;;
70301;SDS011;57706;56.326;43.882;2023-04-03T01:45:59;19.45;;;10.95;;
70301;SDS011;57706;56.326;43.882;2023-04-03T01:48:25;18.85;;;9.68;;
70301;SDS011;57706;56.326;43.882;2023-04-03T01:50:51;17.55;;;8.77;;
70301;SDS011;57706;56.326;43.882;2023-04-03T01:53:18;13.95;;;8.10;;
70301;SDS011;57706;56.326;43.882;2023-04-03T01:55:43;15.82;;;7.40;;
70301;SDS011;57706;56.326;43.882;2023-04-03T01:58:10;16.95;;;7.78;;
70301;SDS011;57706;56.326;43.882;2023-04-03T02:00:35;14.23;;;7.35;;
70301;SDS011;57706;56.326;43.882;2023-04-03T02:03:01;13.18;;;7.65;;
70301;SDS011;57706;56.326;43.882;2023-04-03T02:05:28;15.85;;;8.18;;
70301;SDS011;57706;56.326;43.882;2023-04-03T02:07:53;13.57;;;8.00;;
70301;SDS011;57706;56.326;43.882;2023-04-03T02:10:19;16.40;;;8.23;;
70301;SDS011;57706;56.326;43.882;2023-04-03T02:12:45;14.43;;;8.45;;
70301;SDS011;57706;56.326;43.882;2023-04-03T02:15:11;14.18;;;8.73;;
70301;SDS011;57706;56.326;43.882;2023-04-03T02:17:37;15.68;;;8.43;;
70301;SDS011;57706;56.326;43.882;2023-04-03T02:20:03;14.52;;;8.90;;
70301;SDS011;57706;56.326;43.882;2023-04-03T02:22:30;18.23;;;9.45;;
70301;SDS011;57706;56.326;43.882;2023-04-03T02:24:56;16.35;;;9.77;;
70301;SDS011;57706;56.326;43.882;2023-04-03T02:27:21;16.35;;;10.05;;
70301;SDS011;57706;56.326;43.882;2023-04-03T02:29:47;17.00;;;9.60;;
70301;SDS011;57706;56.326;43.882;2023-04-03T02:32:14;15.07;;;10.13;;
70301;SDS011;57706;56.326;43.882;2023-04-03T02:34:39;15.18;;;9.23;;
70301;SDS011;57706;56.326;43.882;2023-04-03T02:37:06;15.57;;;9.32;;
70301;SDS011;57706;56.326;43.882;2023-04-03T02:39:32;16.25;;;9.20;;
70301;SDS011;57706;56.326;43.882;2023-04-03T02:41:59;16.63;;;9.98;;
70301;SDS011;57706;56.326;43.882;2023-04-03T02:44:26;15.82;;;9.43;;
70301;SDS011;57706;56.326;43.882;2023-04-03T02:46:52;18.40;;;9.80;;
70301;SDS011;57706;56.326;43.882;2023-04-03T02:49:18;16.00;;;8.82;;
70301;SDS011;57706;56.326;43.882;2023-04-03T02:51:44;15.95;;;9.02;;
70301;SDS011;57706;56.326;43.882;2023-04-03T02:54:11;13.45;;;8.45;;
70301;SDS011;57706;56.326;43.882;2023-04-03T02:56:40;14.90;;;8.77;;
70301;SDS011;57706;56.326;43.882;2023-04-03T02:59:06;15.48;;;9.43;;
70301;SDS011;57706;56.326;43.882;2023-04-03T03:01:34;20.13;;;10.05;;
70301;SDS011;57706;56.326;43.882;2023-04-03T03:04:01;17.20;;;10.00;;
70301;SDS011;57706;56.326;43.882;2023-04-03T03:06:27;18.38;;;10.55;;
70301;SDS011;57706;56.326;43.882;2023-04-03T03:08:53;17.67;;;10.68;;
70301;SDS011;57706;56.326;43.882;2023-04-03T03:11:19;28.08;;;15.02;;
70301;SDS011;57706;56.326;43.882;2023-04-03T03:13:46;19.67;;;11.60;;
70301;SDS011;57706;56.326;43.882;2023-04-03T03:16:12;20.65;;;11.25;;
70301;SDS011;57706;56.326;43.882;2023-04-03T03:18:38;20.38;;;10.02;;
70301;SDS011;57706;56.326;43.882;2023-04-03T03:21:04;20.70;;;11.95;;
70301;SDS011;57706;56.326;43.882;2023-04-03T03:23:30;21.88;;;11.77;;
70301;SDS011;57706;56.326;43.882;2023-04-03T03:25:59;23.98;;;12.57;;
70301;SDS011;57706;56.326;43.882;2023-04-03T03:28:27;24.20;;;13.60;;
70301;SDS011;57706;56.326;43.882;2023-04-03T03:30:53;24.05;;;14.60;;
70301;SDS011;57706;56.326;43.882;2023-04-03T03:33:19;23.33;;;13.52;;
70301;SDS011;57706;56.326;43.882;2023-04-03T03:35:45;21.60;;;13.68;;
70301;SDS011;57706;56.326;43.882;2023-04-03T03:38:11;21.60;;;13.50;;
70301;SDS011;57706;56.326;43.882;2023-04-03T03:40:37;22.50;;;13.45;;
70301;SDS011;57706;56.326;43.882;2023-04-03T03:43:03;23.45;;;12.68;;
70301;SDS011;57706;56.326;43.882;2023-04-03T03:45:30;24.75;;;13.43;;
70301;SDS011;57706;56.326;43.882;2023-04-03T03:47:56;22.30;;;12.60;;
70301;SDS011;57706;56.326;43.882;2023-04-03T03:50:22;20.35;;;12.20;;
70301;SDS011;57706;56.326;43.882;2023-04-03T03:52:48;21.50;;;11.93;;
70301;SDS011;57706;56.326;43.882;2023-04-03T03:55:15;19.15;;;10.88;;
70301;SDS011;57706;56.326;43.882;2023-04-03T03:57:40;19.88;;;10.45;;
70301;SDS011;57706;56.326;43.882;2023-04-03T04:00:07;18.25;;;9.52;;
70301;SDS011;57706;56.326;43.882;2023-04-03T04:02:41;16.13;;;9.32;;
70301;SDS011;57706;56.326;43.882;2023-04-03T04:05:11;19.40;;;8.63;;
70301;SDS011;57706;56.326;43.882;2023-04-03T04:07:37;18.10;;;9.60;;
70301;SDS011;57706;56.326;43.882;2023-04-03T04:10:03;15.70;;;9.05;;
70301;SDS011;57706;56.326;43.882;2023-04-03T04:12:30;16.77;;;10.15;;
70301;SDS011;57706;56.326;43.882;2023-04-03T04:14:56;19.50;;;9.30;;
70301;SDS011;57706;56.326;43.882;2023-04-03T04:17:22;20.08;;;9.88;;
70301;SDS011;57706;56.326;43.882;2023-04-03T04:19:49;19.38;;;9.93;;
70301;SDS011;57706;56.326;43.882;2023-04-03T04:22:15;14.05;;;8.23;;
70301;SDS011;57706;56.326;43.882;2023-04-03T04:24:41;16.30;;;9.65;;
70301;SDS011;57706;56.326;43.882;2023-04-03T04:27:08;15.48;;;8.55;;
70301;SDS011;57706;56.326;43.882;2023-04-03T04:29:34;20.55;;;8.45;;
70301;SDS011;57706;56.326;43.882;2023-04-03T04:32:03;19.88;;;8.93;;
70301;SDS011;57706;56.326;43.882;2023-04-03T04:34:29;16.60;;;9.10;;
70301;SDS011;57706;56.326;43.882;2023-04-03T04:36:56;15.40;;;8.73;;
70301;SDS011;57706;56.326;43.882;2023-04-03T04:39:22;19.83;;;10.15;;
70301;SDS011;57706;56.326;43.882;2023-04-03T04:41:49;18.02;;;8.23;;
70301;SDS011;57706;56.326;43.882;2023-04-03T04:44:15;15.48;;;7.53;;
70301;SDS011;57706;56.326;43.882;2023-04-03T04:46:41;18.77;;;9.30;;
70301;SDS011;57706;56.326;43.882;2023-04-03T04:49:08;17.17;;;8.77;;
70301;SDS011;57706;56.326;43.882;2023-04-03T04:51:34;15.77;;;8.60;;
70301;SDS011;57706;56.326;43.882;2023-04-03T04:54:00;16.02;;;9.02;;
70301;SDS011;57706;56.326;43.882;2023-04-03T04:56:26;18.40;;;9.20;;
70301;SDS011;57706;56.326;43.882;2023-04-03T04:58:54;15.70;;;9.52;;
70301;SDS011;57706;56.326;43.882;2023-04-03T05:01:21;17.02;;;10.00;;
70301;SDS011;57706;56.326;43.882;2023-04-03T05:03:54;15.52;;;8.88;;
70301;SDS011;57706;56.326;43.882;2023-04-03T05:06:22;14.65;;;9.35;;
70301;SDS011;57706;56.326;43.882;2023-04-03T05:08:48;13.48;;;7.60;;
70301;SDS011;57706;56.326;43.882;2023-04-03T05:11:15;15.70;;;8.10;;
70301;SDS011;57706;56.326;43.882;2023-04-03T05:13:43;21.30;;;8.70;;
70301;SDS011;57706;56.326;43.882;2023-04-03T05:16:09;15.02;;;8.98;;
70301;SDS011;57706;56.326;43.882;2023-04-03T05:18:35;17.30;;;9.25;;
70301;SDS011;57706;56.326;43.882;2023-04-03T05:21:06;14.00;;;8.60;;
70301;SDS011;57706;56.326;43.882;2023-04-03T05:23:32;14.85;;;8.27;;
70301;SDS011;57706;56.326;43.882;2023-04-03T05:26:02;18.40;;;8.85;;
70301;SDS011;57706;56.326;43.882;2023-04-03T05:28:29;17.02;;;7.75;;
70301;SDS011;57706;56.326;43.882;2023-04-03T05:30:56;20.73;;;8.48;;
70301;SDS011;57706;56.326;43.882;2023-04-03T05:33:27;13.60;;;7.97;;
70301;SDS011;57706;56.326;43.882;2023-04-03T05:35:56;14.82;;;8.63;;
70301;SDS011;57706;56.326;43.882;2023-04-03T05:38:26;19.30;;;8.35;;
70301;SDS011;57706;56.326;43.882;2023-04-03T05:40:55;15.90;;;8.32;;
70301;SDS011;57706;56.326;43.882;2023-04-03T05:43:21;15.93;;;8.35;;
70301;SDS011;57706;56.326;43.882;2023-04-03T05:45:48;21.75;;;7.97;;
70301;SDS011;57706;56.326;43.882;2023-04-03T05:48:15;16.05;;;8.38;;
70301;SDS011;57706;56.326;43.882;2023-04-03T05:50:41;15.77;;;8.40;;
70301;SDS011;57706;56.326;43.882;2023-04-03T05:53:14;17.38;;;8.52;;
70301;SDS011;57706;56.326;43.882;2023-04-03T05:55:45;20.20;;;8.77;;
70301;SDS011;57706;56.326;43.882;2023-04-03T05:58:11;16.23;;;8.18;;
70301;SDS011;57706;56.326;43.882;2023-04-03T06:00:39;17.85;;;8.25;;
70301;SDS011;57706;56.326;43.882;2023-04-03T06:03:05;15.45;;;9.07;;
70301;SDS011;57706;56.326;43.882;2023-04-03T06:05:31;14.63;;;10.23;;
70301;SDS011;57706;56.326;43.882;2023-04-03T06:07:57;21.92;;;8.90;;
70301;SDS011;57706;56.326;43.882;2023-04-03T06:10:23;16.27;;;9.13;;
70301;SDS011;57706;56.326;43.882;2023-04-03T06:12:50;21.27;;;9.05;;
70301;SDS011;57706;56.326;43.882;2023-04-03T06:15:16;21.25;;;10.38;;
70301;SDS011;57706;56.326;43.882;2023-04-03T06:17:42;21.90;;;10.48;;
70301;SDS011;57706;56.326;43.882;2023-04-03T06:20:08;24.20;;;9.68;;
70301;SDS011;57706;56.326;43.882;2023-04-03T06:22:36;18.33;;;9.77;;
70301;SDS011;57706;56.326;43.882;2023-04-03T06:25:02;26.00;;;9.60;;
70301;SDS011;57706;56.326;43.882;2023-04-03T06:27:28;23.27;;;8.80;;
70301;SDS011;57706;56.326;43.882;2023-04-03T06:29:54;17.20;;;8.88;;
70301;SDS011;57706;56.326;43.882;2023-04-03T06:32:20;20.05;;;10.55;;
70301;SDS011;57706;56.326;43.882;2023-04-03T06:34:46;18.90;;;10.30;;
70301;SDS011;57706;56.326;43.882;2023-04-03T06:37:16;26.98;;;10.75;;
70301;SDS011;57706;56.326;43.882;2023-04-03T06:39:42;24.33;;;10.77;;
70301;SDS011;57706;56.326;43.882;2023-04-03T06:42:08;19.73;;;10.98;;
70301;SDS011;57706;56.326;43.882;2023-04-03T06:44:43;22.23;;;12.27;;
70301;SDS011;57706;56.326;43.882;2023-04-03T06:47:11;24.60;;;10.90;;
70301;SDS011;57706;56.326;43.882;2023-04-03T06:49:38;28.75;;;10.77;;
70301;SDS011;57706;56.326;43.882;2023-04-03T06:52:03;21.02;;;11.38;;
70301;SDS011;57706;56.326;43.882;2023-04-03T06:54:30;24.15;;;9.98;;
70301;SDS011;57706;56.326;43.882;2023-04-03T06:56:57;23.73;;;10.90;;
70301;SDS011;57706;56.326;43.882;2023-04-03T06:59:23;29.38;;;11.10;;
70301;SDS011;57706;56.326;43.882;2023-04-03T07:01:49;24.48;;;10.90;;
70301;SDS011;57706;56.326;43.882;2023-04-03T07:04:15;22.38;;;9.43;;
70301;SDS011;57706;56.326;43.882;2023-04-03T07:06:41;27.13;;;9.85;;
70301;SDS011;57706;56.326;43.882;2023-04-03T07:09:08;22.73;;;9.07;;
70301;SDS011;57706;56.326;43.882;2023-04-03T07:11:35;18.38;;;7.70;;
70301;SDS011;57706;56.326;43.882;2023-04-03T07:14:02;23.70;;;8.68;;
70301;SDS011;57706;56.326;43.882;2023-04-03T07:16:28;21.00;;;8.40;;
70301;SDS011;57706;56.326;43.882;2023-04-03T07:18:56;25.75;;;8.43;;
70301;SDS011;57706;56.326;43.882;2023-04-03T07:21:22;17.98;;;7.45;;
70301;SDS011;57706;56.326;43.882;2023-04-03T07:23:49;13.55;;;6.82;;
70301;SDS011;57706;56.326;43.882;2023-04-03T07:26:15;13.18;;;7.03;;
70301;SDS011;57706;56.326;43.882;2023-04-03T07:28:41;20.83;;;6.88;;
70301;SDS011;57706;56.326;43.882;2023-04-03T07:31:07;17.58;;;6.70;;
70301;SDS011;57706;56.326;43.882;2023-04-03T07:33:38;15.40;;;6.25;;
70301;SDS011;57706;56.326;43.882;2023-04-03T07:36:05;19.52;;;6.38;;
70301;SDS011;57706;56.326;43.882;2023-04-03T07:38:33;15.50;;;5.78;;
70301;SDS011;57706;56.326;43.882;2023-04-03T07:41:00;15.20;;;5.40;;
70301;SDS011;57706;56.326;43.882;2023-04-03T07:43:26;10.93;;;5.35;;
70301;SDS011;57706;56.326;43.882;2023-04-03T07:45:52;13.07;;;4.97;;
70301;SDS011;57706;56.326;43.882;2023-04-03T07:48:20;10.93;;;5.90;;
70301;SDS011;57706;56.326;43.882;2023-04-03T07:50:47;14.63;;;5.32;;
70301;SDS011;57706;56.326;43.882;2023-04-03T07:53:13;10.07;;;4.88;;
70301;SDS011;57706;56.326;43.882;2023-04-03T07:55:40;13.85;;;5.20;;
70301;SDS011;57706;56.326;43.882;2023-04-03T07:58:10;19.02;;;5.30;;
70301;SDS011;57706;56.326;43.882;2023-04-03T08:00:38;11.68;;;4.45;;
70301;SDS011;57706;56.326;43.882;2023-04-03T08:03:05;10.90;;;4.82;;
70301;SDS011;57706;56.326;43.882;2023-04-03T08:05:34;11.48;;;5.00;;
70301;SDS011;57706;56.326;43.882;2023-04-03T08:08:02;14.80;;;4.57;;
70301;SDS011;57706;56.326;43.882;2023-04-03T08:10:32;18.05;;;4.50;;
70301;SDS011;57706;56.326;43.882;2023-04-03T08:12:58;14.25;;;5.05;;
70301;SDS011;57706;56.326;43.882;2023-04-03T08:15:24;13.52;;;4.72;;
70301;SDS011;57706;56.326;43.882;2023-04-03T08:17:50;25.38;;;5.00;;
70301;SDS011;57706;56.326;43.882;2023-04-03T08:20:16;9.25;;;4.82;;
70301;SDS011;57706;56.326;43.882;2023-04-03T08:22:42;9.35;;;4.57;;
70301;SDS011;57706;56.326;43.882;2023-04-03T08:25:08;13.55;;;4.88;;
70301;SDS011;57706;56.326;43.882;2023-04-03T08:27:34;14.30;;;4.88;;
70301;SDS011;57706;56.326;43.882;2023-04-03T08:30:00;11.82;;;4.43;;
70301;SDS011;57706;56.326;43.882;2023-04-03T08:32:28;11.98;;;4.28;;
70301;SDS011;57706;56.326;43.882;2023-04-03T08:34:54;9.65;;;4.22;;
70301;SDS011;57706;56.326;43.882;2023-04-03T08:37:20;13.05;;;4.32;;
70301;SDS011;57706;56.326;43.882;2023-04-03T08:39:46;14.45;;;4.55;;
70301;SDS011;57706;56.326;43.882;2023-04-03T08:45:17;9.95;;;4.05;;
70301;SDS011;57706;56.326;43.882;2023-04-03T08:48:05;12.52;;;4.72;;
70301;SDS011;57706;56.326;43.882;2023-04-03T08:50:37;13.20;;;4.07;;
70301;SDS011;57706;56.326;43.882;2023-04-03T08:53:05;10.90;;;4.00;;
70301;SDS011;57706;56.326;43.882;2023-04-03T08:55:43;9.18;;;3.80;;
70301;SDS011;57706;56.326;43.882;2023-04-03T09:03:46;22.27;;;4.18;;
70301;SDS011;57706;56.326;43.882;2023-04-03T09:06:21;7.20;;;4.07;;
70301;SDS011;57706;56.326;43.882;2023-04-03T09:14:26;7.40;;;3.85;;
70301;SDS011;57706;56.326;43.882;2023-04-03T09:17:16;9.02;;;3.47;;
70301;SDS011;57706;56.326;43.882;2023-04-03T09:19:57;10.85;;;4.38;;
70301;SDS011;57706;56.326;43.882;2023-04-03T09:22:31;8.27;;;3.92;;
70301;SDS011;57706;56.326;43.882;2023-04-03T09:27:31;12.88;;;4.28;;
70301;SDS011;57706;56.326;43.882;2023-04-03T09:29:57;16.38;;;4.25;;
70301;SDS011;57706;56.326;43.882;2023-04-03T09:32:30;9.05;;;4.43;;
70301;SDS011;57706;56.326;43.882;2023-04-03T09:35:20;8.57;;;4.45;;
70301;SDS011;57706;56.326;43.882;2023-04-03T09:37:50;19.15;;;4.47;;
70301;SDS011;57706;56.326;43.882;2023-04-03T09:40:34;12.25;;;4.22;;
70301;SDS011;57706;56.326;43.882;2023-04-03T09:43:20;11.35;;;4.32;;
70301;SDS011;57706;56.326;43.882;2023-04-03T09:45:55;7.07;;;3.88;;
70301;SDS011;57706;56.326;43.882;2023-04-03T09:48:23;10.70;;;3.80;;
70301;SDS011;57706;56.326;43.882;2023-04-03T09:56:48;8.25;;;3.58;;
70301;SDS011;57706;56.326;43.882;2023-04-03T10:01:27;16.33;;;3.85;;
70301;SDS011;57706;56.326;43.882;2023-04-03T10:04:17;13.35;;;4.22;;
70301;SDS011;57706;56.326;43.882;2023-04-03T10:06:54;10.57;;;3.75;;
70301;SDS011;57706;56.326;43.882;2023-04-03T10:14:30;12.75;;;4.05;;
70301;SDS011;57706;56.326;43.882;2023-04-03T10:22:47;11.52;;;4.32;;
70301;SDS011;57706;56.326;43.882;2023-04-03T10:25:31;10.20;;;3.72;;
70301;SDS011;57706;56.326;43.882;2023-04-03T10:47:15;6.00;;;3.38;;
70301;SDS011;57706;56.326;43.882;2023-04-03T10:55:18;8.90;;;3.47;;
70301;SDS011;57706;56.326;43.882;2023-04-03T10:57:56;12.40;;;3.15;;
70301;SDS011;57706;56.326;43.882;2023-04-03T11:00:45;9.45;;;3.63;;
70301;SDS011;57706;56.326;43.882;2023-04-03T11:05:48;8.65;;;3.50;;
70301;SDS011;57706;56.326;43.882;2023-04-03T11:11:20;12.85;;;3.20;;
70301;SDS011;57706;56.326;43.882;2023-04-03T11:16:50;10.35;;;3.15;;
70301;SDS011;57706;56.326;43.882;2023-04-03T11:19:31;7.53;;;3.08;;
70301;SDS011;57706;56.326;43.882;2023-04-03T11:22:10;6.85;;;2.85;;
70301;SDS011;57706;56.326;43.882;2023-04-03T11:24:57;11.18;;;2.70;;
70301;SDS011;57706;56.326;43.882;2023-04-03T11:27:24;6.57;;;2.90;;
70301;SDS011;57706;56.326;43.882;2023-04-03T11:29:52;7.93;;;3.17;;
70301;SDS011;57706;56.326;43.882;2023-04-03T11:35:10;6.57;;;2.55;;
70301;SDS011;57706;56.326;43.882;2023-04-03T11:37:44;6.57;;;2.83;;
70301;SDS011;57706;56.326;43.882;2023-04-03T11:42:49;10.10;;;3.10;;
70301;SDS011;57706;56.326;43.882;2023-04-03T11:47:49;5.40;;;2.85;;
70301;SDS011;57706;56.326;43.882;2023-04-03T12:05:48;9.90;;;2.90;;
70301;SDS011;57706;56.326;43.882;2023-04-03T12:08:15;13.27;;;2.92;;
70301;SDS011;57706;56.326;43.882;2023-04-03T12:45:55;7.80;;;2.10;;
70301;SDS011;57706;56.326;43.882;2023-04-03T12:48:26;6.05;;;2.53;;
70301;SDS011;57706;56.326;43.882;2023-04-03T12:50:54;5.30;;;3.03;;
70301;SDS011;57706;56.326;43.882;2023-04-03T12:53:23;5.72;;;2.42;;
70301;SDS011;57706;56.326;43.882;2023-04-03T12:55:56;6.57;;;2.75;;
70301;SDS011;57706;56.326;43.882;2023-04-03T12:58:27;7.78;;;2.53;;
70301;SDS011;57706;56.326;43.882;2023-04-03T13:01:03;10.25;;;2.42;;
70301;SDS011;57706;56.326;43.882;2023-04-03T13:03:40;6.07;;;2.80;;
70301;SDS011;57706;56.326;43.882;2023-04-03T13:06:20;9.65;;;2.90;;
70301;SDS011;57706;56.326;43.882;2023-04-03T13:11:17;8.27;;;2.53;;
70301;SDS011;57706;56.326;43.882;2023-04-03T13:16:22;7.57;;;2.88;;
70301;SDS011;57706;56.326;43.882;2023-04-03T13:18:52;13.52;;;2.80;;
70301;SDS011;57706;56.326;43.882;2023-04-03T13:21:19;6.55;;;2.42;;
70301;SDS011;57706;56.326;43.882;2023-04-03T13:23:51;6.82;;;2.22;;
70301;SDS011;57706;56.326;43.882;2023-04-03T13:26:19;7.50;;;2.75;;
70301;SDS011;57706;56.326;43.882;2023-04-03T13:28:47;9.77;;;2.80;;
70301;SDS011;57706;56.326;43.882;2023-04-03T13:39:07;8.15;;;2.33;;
70301;SDS011;57706;56.326;43.882;2023-04-03T13:41:50;6.97;;;2.58;;
70301;SDS011;57706;56.326;43.882;2023-04-03T13:46:49;5.97;;;2.35;;
70301;SDS011;57706;56.326;43.882;2023-04-03T13:49:17;6.38;;;2.42;;
70301;SDS011;57706;56.326;43.882;2023-04-03T13:51:52;19.67;;;3.20;;
70301;SDS011;57706;56.326;43.882;2023-04-03T13:54:28;6.22;;;2.53;;
70301;SDS011;57706;56.326;43.882;2023-04-03T13:56:59;5.13;;;2.50;;
70301;SDS011;57706;56.326;43.882;2023-04-03T13:59:33;5.07;;;2.35;;
70301;SDS011;57706;56.326;43.882;2023-04-03T14:04:32;6.38;;;2.67;;
70301;SDS011;57706;56.326;43.882;2023-04-03T14:07:21;6.57;;;2.63;;
70301;SDS011;57706;56.326;43.882;2023-04-03T14:09:49;4.85;;;2.60;;
70301;SDS011;57706;56.326;43.882;2023-04-03T14:12:21;6.95;;;2.67;;
70301;SDS011;57706;56.326;43.882;2023-04-03T14:14:53;9.82;;;3.03;;
70301;SDS011;57706;56.326;43.882;2023-04-03T14:17:20;5.63;;;2.72;;
70301;SDS011;57706;56.326;43.882;2023-04-03T14:19:48;11.10;;;2.90;;
70301;SDS011;57706;56.326;43.882;2023-04-03T14:22:17;16.50;;;3.92;;
70301;SDS011;57706;56.326;43.882;2023-04-03T14:24:49;8.60;;;3.10;;
70301;SDS011;57706;56.326;43.882;2023-04-03T14:27:24;12.40;;;3.20;;
70301;SDS011;57706;56.326;43.882;2023-04-03T14:29:53;8.00;;;3.22;;
70301;SDS011;57706;56.326;43.882;2023-04-03T14:32:20;11.15;;;3.75;;
70301;SDS011;57706;56.326;43.882;2023-04-03T14:34:48;7.93;;;3.58;;
70301;SDS011;57706;56.326;43.882;2023-04-03T14:37:16;7.90;;;3.22;;
70301;SDS011;57706;56.326;43.882;2023-04-03T14:39:47;9.90;;;3.30;;
70301;SDS011;57706;56.326;43.882;2023-04-03T14:42:16;8.00;;;3.35;;
70301;SDS011;57706;56.326;43.882;2023-04-03T14:44:44;14.13;;;3.58;;
70301;SDS011;57706;56.326;43.882;2023-04-03T14:47:11;9.82;;;3.95;;
70301;SDS011;57706;56.326;43.882;2023-04-03T14:49:39;12.65;;;3.67;;
70301;SDS011;57706;56.326;43.882;2023-04-03T14:52:05;6.35;;;3.00;;
70301;SDS011;57706;56.326;43.882;2023-04-03T14:54:31;18.30;;;3.63;;
70301;SDS011;57706;56.326;43.882;2023-04-03T14:56:58;21.50;;;4.00;;
70301;SDS011;57706;56.326;43.882;2023-04-03T14:59:26;12.73;;;4.15;;
70301;SDS011;57706;56.326;43.882;2023-04-03T15:01:52;21.20;;;9.73;;
70301;SDS011;57706;56.326;43.882;2023-04-03T15:04:19;14.75;;;6.18;;
70301;SDS011;57706;56.326;43.882;2023-04-03T15:06:46;17.50;;;4.55;;
70301;SDS011;57706;56.326;43.882;2023-04-03T15:09:25;14.02;;;3.53;;
70301;SDS011;57706;56.326;43.882;2023-04-03T15:11:53;10.02;;;3.47;;
70301;SDS011;57706;56.326;43.882;2023-04-03T15:14:20;10.90;;;3.63;;
70301;SDS011;57706;56.326;43.882;2023-04-03T15:16:46;20.10;;;3.85;;
70301;SDS011;57706;56.326;43.882;2023-04-03T15:19:13;17.90;;;4.32;;
70301;SDS011;57706;56.326;43.882;2023-04-03T15:21:39;21.55;;;4.85;;
70301;SDS011;57706;56.326;43.882;2023-04-03T15:24:05;11.68;;;3.72;;
70301;SDS011;57706;56.326;43.882;2023-04-03T15:26:31;19.63;;;4.00;;
70301;SDS011;57706;56.326;43.882;2023-04-03T15:28:58;13.75;;;3.58;;
70301;SDS011;57706;56.326;43.882;2023-04-03T15:31:23;12.30;;;3.97;;
70301;SDS011;57706;56.326;43.882;2023-04-03T15:33:49;24.05;;;4.97;;
70301;SDS011;57706;56.326;43.882;2023-04-03T15:36:15;17.20;;;4.40;;
70301;SDS011;57706;56.326;43.882;2023-04-03T15:38:41;9.95;;;4.00;;
70301;SDS011;57706;56.326;43.882;2023-04-03T15:41:07;18.42;;;4.70;;
70301;SDS011;57706;56.326;43.882;2023-04-03T15:43:32;18.45;;;4.65;;
70301;SDS011;57706;56.326;43.882;2023-04-03T15:46:01;21.30;;;4.55;;
70301;SDS011;57706;56.326;43.882;2023-04-03T15:48:27;20.27;;;4.97;;
70301;SDS011;57706;56.326;43.882;2023-04-03T15:50:54;28.88;;;5.32;;
70301;SDS011;57706;56.326;43.882;2023-04-03T15:53:20;20.27;;;5.20;;
70301;SDS011;57706;56.326;43.882;2023-04-03T15:55:46;16.27;;;5.00;;
70301;SDS011;57706;56.326;43.882;2023-04-03T15:58:11;21.58;;;5.55;;
70301;SDS011;57706;56.326;43.882;2023-04-03T16:00:37;11.73;;;5.20;;
70301;SDS011;57706;56.326;43.882;2023-04-03T16:03:11;21.65;;;6.43;;
70301;SDS011;57706;56.326;43.882;2023-04-03T16:05:40;17.92;;;4.68;;
70301;SDS011;57706;56.326;43.882;2023-04-03T16:08:06;26.70;;;5.70;;
70301;SDS011;57706;56.326;43.882;2023-04-03T16:10:33;18.30;;;5.80;;
70301;SDS011;57706;56.326;43.882;2023-04-03T16:13:01;20.15;;;4.90;;
70301;SDS011;57706;56.326;43.882;2023-04-03T16:15:27;24.70;;;5.13;;
70301;SDS011;57706;56.326;43.882;2023-04-03T16:17:55;23.52;;;4.85;;
70301;SDS011;57706;56.326;43.882;2023-04-03T16:20:22;23.80;;;5.38;;
70301;SDS011;57706;56.326;43.882;2023-04-03T16:22:48;17.45;;;4.45;;
70301;SDS011;57706;56.326;43.882;2023-04-03T16:25:14;16.15;;;5.45;;
70301;SDS011;57706;56.326;43.882;2023-04-03T16:27:40;25.70;;;5.82;;
70301;SDS011;57706;56.326;43.882;2023-04-03T16:30:06;36.95;;;5.70;;
70301;SDS011;57706;56.326;43.882;2023-04-03T16:32:33;26.42;;;6.00;;
70301;SDS011;57706;56.326;43.882;2023-04-03T16:35:00;31.30;;;6.10;;
70301;SDS011;57706;56.326;43.882;2023-04-03T16:37:26;26.75;;;5.43;;
70301;SDS011;57706;56.326;43.882;2023-04-03T16:39:51;21.17;;;7.20;;
70301;SDS011;57706;56.326;43.882;2023-04-03T16:42:17;37.15;;;6.18;;
70301;SDS011;57706;56.326;43.882;2023-04-03T16:44:43;43.13;;;8.90;;
70301;SDS011;57706;56.326;43.882;2023-04-03T16:47:09;16.17;;;5.05;;
70301;SDS011;57706;56.326;43.882;2023-04-03T16:49:35;15.68;;;5.18;;
70301;SDS011;57706;56.326;43.882;2023-04-03T16:52:02;43.05;;;5.75;;
70301;SDS011;57706;56.326;43.882;2023-04-03T16:54:29;23.60;;;6.22;;
70301;SDS011;57706;56.326;43.882;2023-04-03T16:56:55;18.58;;;4.70;;
70301;SDS011;57706;56.326;43.882;2023-04-03T16:59:21;21.30;;;6.03;;
70301;SDS011;57706;56.326;43.882;2023-04-03T17:01:47;21.65;;;5.20;;